x

Nantucket Sound (44020) Wave Buoy

11:50 - Mon 20th Feb 2017 All times are EST. -5 hours from GMT.

  • Sig Wave height 1.6ft
  • Swell Direction
  • Peak Period 3s
  • Average Period 3s
  • Wind
    16mph, 18mph gusts
  • Sea Temp 38°f
  • Aire Temp 39°f
  • Sea Pressure 1019.6mb
  • Nantucket Sound
  • Nantucket Sound

More Historic Weather Station data

Upgrade to MSW Pro to gain access to the past 30 days of data for over 8000 Wavebouys and Weather Stations around the globe.

Join Pro

Comparision Forecast

View Surf forecast
   
lun 02/20 11:50 1.6ft 3s 3s 16 18 mph 1019.6mb 38f 39f
10:50 1.3ft 3s 3s 16 18 mph 1019.7mb 38f 40f
9:50 1.3ft 3s 3s 11 13 mph 1019.5mb 38f 40f
8:50 1.6ft 3s 3s 13 18 mph 1019.2mb 38f 40f
7:50 1.6ft 3s 3s 16
mph
1018.3mb 38f 41f
6:50 1.6ft 3s 3s 13 16 mph 1016.9mb 38f 41f
5:50 1.3ft 2s 3s 11 13 mph 1016mb 38f 41f
4:50 0.7ft  -  4s 18 20 mph 1014.7mb 38f 43f
3:50 0.7ft  -  4s 9
mph
1013.9mb 38f 42f
2:50 0.7ft  -  3s 9 11 mph 1013.4mb 39f 42f
1:50 0.7ft  -  3s 2 4 mph 1013mb 38f 41f
12:50 0.7ft  -  4s 7 9 mph 1012.6mb 38f 42f
dom 02/19 11:50 0.7ft  -  4s 2 4 mph 1012.2mb 38f 42f
10:50 0.7ft  -  3s 7 9 mph 1011.7mb 38f 44f
9:50 1ft 3s 3s 9 11 mph 1011.3mb 38f 44f
8:50 1ft 3s 3s 9 11 mph 1010.7mb 38f 44f
7:50 1ft 3s 4s 11
mph
1009.7mb 39f 43f
6:50 1ft 3s 3s 11
mph
1009.2mb 38f 43f
5:50 1.3ft 3s 3s 11
mph
1008.5mb 38f 43f
4:50 1.3ft 3s 3s 13 16 mph 1007.3mb 39f 44f
3:50 1.3ft 3s 3s 13 16 mph 1006.4mb 39f 44f
2:50 1.3ft 3s 3s 18 20 mph 1006mb 39f 46f
1:50 1.3ft 3s 3s 16 18 mph 1005.9mb 39f 44f
12:50 1.3ft 3s 3s 18 20 mph 1006mb 38f 44f
11:50 0.7ft  -  4s 13 16 mph 1006.5mb 38f 43f
10:50 0.7ft  -  4s 11
mph
1006.6mb 38f 42f
9:50 0.7ft  -  3s 9 13 mph 1006.4mb 38f 43f
8:50 0.7ft  -  3s 4 7 mph 1005.9mb 38f 42f
7:50 1ft 3s 3s 7 9 mph 1005.9mb 38f 42f
6:50 1.3ft 4s 3s 9 11 mph 1005.4mb 38f 42f
5:50 1.3ft 3s 3s 13 16 mph 1004.4mb 38f 42f
4:50 1.3ft 3s 3s 16 18 mph 1003.6mb 38f 41f
3:50 1.3ft 3s 3s 20 25 mph 1002.5mb 38f 42f
2:50 1.3ft 3s 3s 20 25 mph 1002.1mb 38f 43f
1:50 1.3ft 3s 3s 18 22 mph 1002.3mb 38f 43f
12:50 1.3ft 3s 3s 18
mph
1002.1mb 38f 42f
sáb 02/18 11:50 1.3ft 3s 3s 16 18 mph 1002.3mb 38f 42f
10:50 1ft 4s 3s 11 13 mph 1002.9mb 38f 41f
9:50 1ft 4s 3s 9 11 mph 1003.4mb 38f 41f
8:50 1.3ft 3s 3s 16 20 mph 1003.4mb 38f 42f
7:50 1.6ft 3s 3s 16 18 mph 1003.8mb 38f 42f
6:50 2.5ft 4s 3s 20 22 mph 1003.2mb 38f 43f
5:50 2.5ft 4s 3s 25 27 mph 1003.2mb 38f 43f
4:50 1.6ft 3s 3s 22 25 mph 1003.5mb 38f 42f
3:50 1.6ft 3s 3s 20 22 mph 1003.6mb 38f 41f
2:50 1.3ft 3s 3s 18 20 mph 1004.6mb 38f 41f
1:50 1.3ft 3s 3s 18 22 mph 1006.2mb 38f 41f
12:50 1.3ft 2s 3s 18 20 mph 1007.3mb 38f 40f
11:50 1ft 2s 3s 20 25 mph 1008.2mb 38f 40f
10:50 0.7ft  -  3s 11 13 mph 1009.5mb 38f 38f
9:50 0.7ft  -  3s 9 11 mph 1010.4mb 37f 38f
8:50 0.7ft  -  3s 11 13 mph 1010.9mb 37f 37f
7:50 1ft 3s 3s 13 16 mph 1010.9mb 37f 36f
6:50 1ft 4s 3s 11 13 mph 1010.8mb 38f 35f
5:50 1.3ft 4s 4s 7 9 mph 1010.2mb 38f 35f
4:50 1.6ft 4s 3s 9 11 mph 1010.4mb 37f 35f
3:50 2ft 3s 3s 18 22 mph 1011mb 38f 35f
2:50 2ft 4s 3s 18 22 mph 1010.3mb 38f 35f
1:50 2ft 4s 3s 20 22 mph 1010mb 38f 35f
12:50 2ft 4s 3s 20 27 mph 1009.5mb 38f 35f
vie 02/17 11:50 2ft 4s 3s 20 25 mph 1008.9mb 38f 36f
10:50 1.6ft 3s 3s 20 25 mph 1008.4mb 38f 37f
9:50 2.5ft 4s 3s 20 22 mph 1008mb 38f 37f
8:50 2ft 4s 3s 22 27 mph 1007.8mb 38f 38f
7:50 1.6ft 4s 3s 18 22 mph 1007.2mb 38f 38f
6:50 1.3ft 3s 3s 18 20 mph 1006.7mb 39f 39f
5:50 1.3ft 4s 3s 13 16 mph 1006.1mb 39f 38f
4:50 1.6ft 4s 3s 16 20 mph 1005.2mb 38f 38f
3:50 2ft 4s 3s 18 22 mph 1004.5mb 38f 38f
2:50 2ft 3s 3s 20 25 mph 1004.5mb 38f 37f
1:50 2ft 3s 3s 20 22 mph 1004.2mb 38f 35f
12:50 2.5ft 4s 3s 18 20 mph 1004.3mb 38f 34f
11:50 2.5ft 4s 3s 20 22 mph 1004.5mb 38f 32f
10:50 2.5ft 4s 3s 20 25 mph 1005mb 38f 31f
9:50 3.5ft 5s 4s 20 27 mph 1005mb 38f 30f
8:50 3.5ft 5s 4s 27 31 mph 1004.6mb 38f 29f
7:50 4ft 5s 4s 29 36 mph 1004.2mb 38f 29f
6:50 3.5ft 5s 4s 29 36 mph 1003.7mb 38f 28f
5:50 3ft 4s 4s 27 34 mph 1003.4mb 38f 28f
4:50 3ft 4s 4s 25 31 mph 1003.1mb 38f 29f
3:50 3ft 4s 4s 25 31 mph 1002.7mb 38f 29f
2:50 3ft 4s 4s 27 31 mph 1002.1mb 38f 29f
1:50 3ft 4s 3s 25 31 mph 1002.1mb 38f 30f
12:50 2.5ft 4s 3s 27 31 mph 1001.7mb 39f 31f
jue 02/16 11:50 2.5ft 4s 3s 25 29 mph 1001.2mb 38f 32f
10:50 2.5ft 3s 3s 22 27 mph 1001.1mb 39f 33f
9:50 2.5ft 4s 3s 22 27 mph 1000.7mb 38f 34f
8:50 3ft 4s 4s 22 27 mph 1000.3mb 38f 34f
7:50 3ft 4s 4s 20 27 mph 999.5mb 38f 35f
6:50 3.5ft 4s 4s 22 27 mph 998.6mb 38f 35f